createdAt,value
2019-03-01T00:00:22.074Z,10.80
2019-03-01T00:01:22.087Z,10.70
2019-03-01T00:02:22.052Z,10.70
2019-03-01T00:03:22.036Z,11.20
2019-03-01T00:04:22.022Z,10.40
2019-03-01T00:05:22.013Z,10.60
2019-03-01T00:06:22.003Z,10.20
2019-03-01T00:07:22.006Z,10.40
2019-03-01T00:08:21.974Z,10.20
2019-03-01T00:09:21.966Z,10.60
2019-03-01T00:10:21.951Z,10.60
2019-03-01T00:11:21.956Z,10.70
2019-03-01T00:12:21.955Z,10.70
2019-03-01T00:13:21.917Z,10.60
2019-03-01T00:14:21.909Z,10.40
2019-03-01T00:15:21.905Z,10.80
2019-03-01T00:16:21.891Z,10.10
2019-03-01T00:17:21.891Z,10.20
2019-03-01T00:18:21.878Z,9.70
2019-03-01T00:19:21.855Z,10.70
2019-03-01T00:20:21.834Z,10.30
2019-03-01T00:21:21.825Z,10.00
2019-03-01T00:22:21.832Z,10.00
2019-03-01T00:23:21.803Z,9.80
2019-03-01T00:24:21.787Z,9.90
2019-03-01T00:25:21.782Z,10.10
2019-03-01T00:26:21.772Z,9.40
2019-03-01T00:27:21.775Z,9.70
2019-03-01T00:28:21.740Z,9.10
2019-03-01T00:29:21.731Z,9.00
2019-03-01T00:30:21.722Z,9.10
2019-03-01T00:31:21.707Z,9.30
2019-03-01T00:32:21.691Z,9.50
2019-03-01T00:33:21.700Z,9.40
2019-03-01T00:34:21.673Z,8.80
2019-03-01T00:35:21.660Z,8.90
2019-03-01T00:36:21.645Z,9.30
2019-03-01T00:37:21.634Z,8.80
2019-03-01T00:38:21.642Z,9.00
2019-03-01T00:39:21.608Z,8.50
2019-03-01T00:40:21.616Z,8.70
2019-03-01T00:41:21.586Z,9.00
2019-03-01T00:42:21.577Z,8.70
2019-03-01T00:43:21.612Z,9.10
2019-03-01T00:44:21.564Z,8.30
2019-03-01T00:45:21.539Z,9.20
2019-03-01T00:46:21.527Z,8.30
2019-03-01T00:47:21.513Z,8.90
2019-03-01T00:48:21.503Z,8.60
2019-03-01T00:49:21.508Z,8.70
2019-03-01T00:50:21.479Z,8.30
2019-03-01T00:51:21.468Z,8.50
2019-03-01T00:52:21.460Z,7.70
2019-03-01T00:53:21.453Z,8.00
2019-03-01T00:54:21.460Z,8.20
2019-03-01T00:55:21.419Z,7.90
2019-03-01T00:56:21.412Z,7.60
2019-03-01T00:57:21.398Z,7.80
2019-03-01T00:58:21.390Z,7.90
2019-03-01T00:59:21.399Z,8.00
2019-03-01T01:00:21.365Z,7.70
2019-03-01T01:01:21.350Z,7.80
2019-03-01T01:02:21.340Z,7.80
2019-03-01T01:03:21.330Z,8.20
2019-03-01T01:04:21.343Z,7.50
2019-03-01T01:05:21.304Z,7.60
2019-03-01T01:06:21.291Z,7.50
2019-03-01T01:07:28.310Z,7.70
2019-03-01T01:08:21.266Z,7.50
2019-03-01T01:09:21.301Z,7.90
2019-03-01T01:10:21.243Z,7.20
2019-03-01T01:11:21.233Z,7.50
2019-03-01T01:12:21.226Z,7.50
2019-03-01T01:13:21.214Z,7.60
2019-03-01T01:14:21.217Z,7.40
2019-03-01T01:15:21.186Z,7.90
2019-03-01T01:16:21.174Z,7.50
2019-03-01T01:17:21.170Z,7.10
2019-03-01T01:18:21.149Z,7.50
2019-03-01T01:19:21.161Z,6.80
2019-03-01T01:20:21.127Z,7.20
2019-03-01T01:21:21.116Z,7.10
2019-03-01T01:22:21.106Z,7.10
2019-03-01T01:23:21.094Z,6.90
2019-03-01T01:24:21.084Z,6.70
2019-03-01T01:25:21.091Z,6.70
2019-03-01T01:26:21.059Z,6.90
2019-03-01T01:27:21.134Z,6.90
2019-03-01T01:28:21.042Z,6.40
2019-03-01T01:29:21.026Z,6.70
2019-03-01T01:30:21.032Z,6.60
2019-03-01T01:31:21.003Z,6.80
2019-03-01T01:32:20.993Z,7.10
2019-03-01T01:33:20.980Z,7.30
2019-03-01T01:34:20.969Z,6.80
2019-03-01T01:35:20.987Z,7.30
2019-03-01T01:36:20.947Z,6.50
2019-03-01T01:37:20.933Z,7.40
2019-03-01T01:38:20.927Z,6.80
2019-03-01T01:39:20.918Z,6.60
2019-03-01T01:40:20.903Z,6.90
2019-03-01T01:41:20.914Z,6.80
2019-03-01T01:42:20.880Z,6.80
2019-03-01T01:43:20.866Z,6.60
2019-03-01T01:44:20.864Z,6.80
2019-03-01T01:45:20.845Z,6.60
2019-03-01T01:46:20.850Z,7.00
2019-03-01T01:47:20.825Z,7.20
2019-03-01T01:48:20.811Z,7.00
2019-03-01T01:49:20.807Z,7.30
2019-03-01T01:50:20.789Z,7.20
2019-03-01T01:51:20.798Z,7.70
2019-03-01T01:52:20.765Z,7.40
2019-03-01T01:53:20.753Z,7.20
2019-03-01T01:54:20.744Z,7.40
2019-03-01T01:55:20.732Z,6.90
2019-03-01T01:56:20.738Z,7.90
2019-03-01T01:57:20.708Z,7.30
2019-03-01T01:58:20.698Z,7.30
2019-03-01T01:59:20.689Z,7.30
2019-03-01T02:00:20.678Z,7.30
2019-03-01T02:01:20.682Z,7.40
2019-03-01T02:02:20.651Z,7.20
2019-03-01T02:03:20.641Z,7.40
2019-03-01T02:04:20.629Z,7.30
2019-03-01T02:05:20.618Z,7.40
2019-03-01T02:06:20.623Z,7.50
2019-03-01T02:07:20.594Z,7.50
2019-03-01T02:08:20.584Z,7.40
2019-03-01T02:09:20.571Z,7.50
2019-03-01T02:10:20.592Z,7.40
2019-03-01T02:11:20.571Z,7.80
2019-03-01T02:12:20.535Z,7.50
2019-03-01T02:13:20.527Z,8.20
2019-03-01T02:14:20.515Z,7.60
2019-03-01T02:15:20.502Z,7.70
2019-03-01T02:16:20.493Z,8.00
2019-03-01T02:17:20.501Z,8.30
2019-03-01T02:18:20.468Z,7.60
2019-03-01T02:19:20.463Z,8.00
2019-03-01T02:20:20.445Z,7.80
2019-03-01T02:21:20.436Z,8.10
2019-03-01T02:22:20.442Z,8.30
2019-03-01T02:23:20.413Z,7.70
2019-03-01T02:24:20.402Z,8.10
2019-03-01T02:25:20.390Z,8.80
2019-03-01T02:26:20.376Z,8.40
2019-03-01T02:27:20.384Z,8.60
2019-03-01T02:28:20.374Z,8.40
2019-03-01T02:29:20.344Z,8.70
2019-03-01T02:30:20.378Z,9.00
2019-03-01T02:31:20.324Z,9.10
2019-03-01T02:32:20.307Z,9.40
2019-03-01T02:33:20.349Z,9.60
2019-03-01T02:34:20.282Z,9.40
2019-03-01T02:35:20.274Z,9.00
2019-03-01T02:36:20.259Z,9.10
2019-03-01T02:37:20.249Z,9.10
2019-03-01T02:38:20.256Z,9.90
2019-03-01T02:39:20.228Z,8.90
2019-03-01T02:40:20.221Z,9.10
2019-03-01T02:41:20.203Z,9.10
2019-03-01T02:42:20.193Z,9.20
2019-03-01T02:43:20.197Z,9.20
2019-03-01T02:44:20.171Z,8.80
2019-03-01T02:45:20.176Z,8.70
2019-03-01T02:46:20.157Z,9.40
2019-03-01T02:47:20.139Z,8.90
2019-03-01T02:48:20.143Z,9.20
2019-03-01T02:49:20.131Z,8.20
2019-03-01T02:50:20.112Z,8.80
2019-03-01T02:51:20.105Z,9.20
2019-03-01T02:52:20.076Z,9.30
2019-03-01T02:53:20.085Z,9.20
2019-03-01T02:54:20.053Z,8.80
2019-03-01T02:55:20.044Z,8.90
2019-03-01T02:56:20.031Z,8.50
2019-03-01T02:57:20.035Z,8.70
2019-03-01T02:58:20.008Z,9.10
2019-03-01T02:59:20.037Z,8.50
2019-03-01T03:00:19.997Z,8.60
2019-03-01T03:01:19.975Z,9.00
2019-03-01T03:02:19.961Z,8.20
2019-03-01T03:03:19.997Z,9.50
2019-03-01T03:04:19.961Z,8.50
2019-03-01T03:05:19.944Z,8.40
2019-03-01T03:06:19.918Z,8.50
2019-03-01T03:07:19.901Z,8.40
2019-03-01T03:08:19.910Z,8.70
2019-03-01T03:09:19.880Z,8.50
2019-03-01T03:10:19.870Z,8.90
2019-03-01T03:11:19.860Z,8.70
2019-03-01T03:12:19.850Z,8.40
2019-03-01T03:13:19.857Z,8.70
2019-03-01T03:14:19.827Z,8.60
2019-03-01T03:15:19.816Z,8.40
2019-03-01T03:16:19.799Z,8.30
2019-03-01T03:17:19.786Z,8.40
2019-03-01T03:18:19.803Z,8.80
2019-03-01T03:19:19.767Z,8.20
2019-03-01T03:20:19.752Z,8.00
2019-03-01T03:21:19.743Z,8.60
2019-03-01T03:22:19.737Z,8.00
2019-03-01T03:23:19.719Z,8.30
2019-03-01T03:24:19.725Z,8.20
2019-03-01T03:25:19.699Z,8.20
2019-03-01T03:26:19.681Z,7.70
2019-03-01T03:27:19.673Z,8.20
2019-03-01T03:28:19.676Z,8.40
2019-03-01T03:29:19.667Z,8.10
2019-03-01T03:30:19.651Z,7.60
2019-03-01T03:31:19.645Z,8.30
2019-03-01T03:32:19.627Z,7.90
2019-03-01T03:33:19.611Z,8.50
2019-03-01T03:34:19.633Z,7.80
2019-03-01T03:35:19.626Z,7.70
2019-03-01T03:36:19.571Z,7.20
2019-03-01T03:37:19.594Z,7.60
2019-03-01T03:38:19.560Z,7.40
2019-03-01T03:39:19.553Z,6.70
2019-03-01T03:40:19.525Z,6.90
2019-03-01T03:41:19.520Z,6.90
2019-03-01T03:42:19.521Z,6.90
2019-03-01T03:43:19.493Z,6.30
2019-03-01T03:44:19.499Z,6.60
2019-03-01T03:45:19.475Z,6.50
2019-03-01T03:46:19.462Z,6.90
2019-03-01T03:47:19.444Z,6.70
2019-03-01T03:48:19.440Z,6.70
2019-03-01T03:49:19.437Z,6.80
2019-03-01T03:50:19.408Z,6.40
2019-03-01T03:51:19.399Z,6.90
2019-03-01T03:52:19.384Z,6.90
2019-03-01T03:53:19.373Z,6.60
2019-03-01T03:54:19.381Z,6.40
2019-03-01T03:55:19.359Z,6.70
2019-03-01T03:56:19.336Z,6.40
2019-03-01T03:57:19.326Z,6.50
2019-03-01T03:58:19.335Z,6.50
2019-03-01T03:59:19.328Z,6.40
2019-03-01T04:00:19.295Z,6.90
2019-03-01T04:01:19.284Z,6.40
2019-03-01T04:02:19.274Z,6.40
2019-03-01T04:03:19.263Z,6.20
2019-03-01T04:04:19.259Z,6.00
2019-03-01T04:05:19.242Z,6.20
2019-03-01T04:06:19.226Z,6.10
2019-03-01T04:07:19.212Z,6.30
2019-03-01T04:08:19.200Z,5.70
2019-03-01T04:09:19.202Z,6.10
2019-03-01T04:10:19.175Z,6.40
2019-03-01T04:11:19.173Z,5.90
2019-03-01T04:12:19.156Z,6.40
2019-03-01T04:13:19.179Z,6.40
2019-03-01T04:14:19.144Z,5.60
2019-03-01T04:15:19.116Z,6.30
2019-03-01T04:16:19.108Z,6.30
2019-03-01T04:17:19.091Z,6.10
2019-03-01T04:18:19.088Z,5.90
2019-03-01T04:19:19.084Z,5.80
2019-03-01T04:20:19.064Z,6.30
2019-03-01T04:21:19.049Z,6.00
2019-03-01T04:22:19.032Z,5.90
2019-03-01T04:23:19.020Z,6.30
2019-03-01T04:24:19.023Z,5.60
2019-03-01T04:25:19.001Z,5.50
2019-03-01T04:26:18.984Z,6.00
2019-03-01T04:27:18.975Z,6.10
2019-03-01T04:28:18.960Z,5.40
2019-03-01T04:29:18.966Z,5.50
2019-03-01T04:30:18.939Z,5.90
2019-03-01T04:31:18.923Z,5.50
2019-03-01T04:32:18.911Z,5.40
2019-03-01T04:33:18.900Z,6.50
2019-03-01T04:34:18.928Z,5.80
2019-03-01T04:35:18.880Z,6.20
2019-03-01T04:36:18.867Z,42.70
2019-03-01T04:37:18.855Z,12.60
2019-03-01T04:38:18.844Z,6.90
2019-03-01T04:39:18.853Z,6.30
2019-03-01T04:40:18.820Z,5.90
2019-03-01T04:41:18.807Z,6.20
2019-03-01T04:42:18.797Z,6.40
2019-03-01T04:43:18.785Z,6.40
2019-03-01T04:44:18.793Z,6.10
2019-03-01T04:45:18.758Z,6.80
2019-03-01T04:46:18.764Z,6.80
2019-03-01T04:47:18.736Z,7.00
2019-03-01T04:48:18.729Z,6.80
2019-03-01T04:49:18.730Z,7.10
2019-03-01T04:50:18.703Z,7.10
2019-03-01T04:51:18.705Z,7.30
2019-03-01T04:52:18.679Z,7.40
2019-03-01T04:53:18.666Z,7.10
2019-03-01T04:54:18.676Z,7.20
2019-03-01T04:55:18.643Z,7.90
2019-03-01T04:56:18.632Z,8.10
2019-03-01T04:57:18.619Z,7.90
2019-03-01T04:58:18.608Z,8.20
2019-03-01T04:59:18.599Z,8.10
2019-03-01T05:00:18.608Z,7.80
2019-03-01T05:01:18.574Z,8.70
2019-03-01T05:02:18.562Z,8.20
2019-03-01T05:03:18.561Z,8.90
2019-03-01T05:04:18.541Z,9.10
2019-03-01T05:05:18.547Z,8.80
2019-03-01T05:06:18.522Z,8.70
2019-03-01T05:07:18.504Z,9.00
2019-03-01T05:08:18.496Z,9.10
2019-03-01T05:09:18.495Z,8.90
2019-03-01T05:10:18.492Z,9.20
2019-03-01T05:11:18.461Z,9.60
2019-03-01T05:12:18.449Z,8.90
2019-03-01T05:13:18.440Z,9.60
2019-03-01T05:14:18.432Z,9.80
2019-03-01T05:15:18.439Z,9.10
2019-03-01T05:16:18.406Z,9.40
2019-03-01T05:17:18.395Z,9.20
2019-03-01T05:18:18.384Z,9.30
2019-03-01T05:19:18.371Z,10.10
2019-03-01T05:20:18.401Z,10.10
2019-03-01T05:21:18.351Z,10.00
2019-03-01T05:22:18.341Z,53.60
2019-03-01T05:23:18.328Z,21.00
2019-03-01T05:24:18.315Z,10.70
2019-03-01T05:25:18.304Z,10.40
2019-03-01T05:26:18.312Z,10.20
2019-03-01T05:27:18.282Z,9.70
2019-03-01T05:28:18.271Z,9.70
2019-03-01T05:29:18.258Z,9.70
2019-03-01T05:30:18.375Z,9.80
2019-03-01T05:31:18.259Z,10.20
2019-03-01T05:32:18.223Z,9.60
2019-03-01T05:33:18.216Z,10.50
2019-03-01T05:34:18.199Z,9.70
2019-03-01T05:35:18.194Z,9.90
2019-03-01T05:36:18.198Z,10.40
2019-03-01T05:37:18.180Z,10.60
2019-03-01T05:38:21.660Z,10.40
2019-03-01T05:39:18.140Z,10.70
2019-03-01T05:40:18.131Z,9.70
2019-03-01T05:41:18.139Z,10.10
2019-03-01T05:42:18.104Z,10.50
2019-03-01T05:43:18.093Z,10.60
2019-03-01T05:44:18.082Z,10.70
2019-03-01T05:45:18.069Z,11.20
2019-03-01T05:46:18.057Z,10.80
2019-03-01T05:47:18.063Z,11.00
2019-03-01T05:48:18.031Z,10.80
2019-03-01T05:49:18.022Z,11.10
2019-03-01T05:50:18.012Z,11.20
2019-03-01T05:51:18.000Z,11.30
2019-03-01T05:52:18.006Z,11.50
2019-03-01T05:53:17.977Z,11.10
2019-03-01T05:54:17.961Z,11.90
2019-03-01T05:55:17.952Z,30.80
2019-03-01T05:56:17.938Z,44.60
2019-03-01T05:57:17.943Z,15.30
2019-03-01T05:58:17.914Z,12.00
2019-03-01T05:59:17.905Z,12.40
2019-03-01T06:00:17.892Z,11.90
2019-03-01T06:01:17.878Z,11.70
2019-03-01T06:02:17.883Z,12.10
2019-03-01T06:03:17.857Z,11.30
2019-03-01T06:04:17.847Z,11.60
2019-03-01T06:05:17.830Z,11.30
2019-03-01T06:06:17.820Z,11.90
2019-03-01T06:07:17.833Z,11.20
2019-03-01T06:08:17.796Z,11.50
2019-03-01T06:09:17.789Z,11.80
2019-03-01T06:10:17.773Z,12.20
2019-03-01T06:11:17.766Z,11.90
2019-03-01T06:12:17.751Z,12.30
2019-03-01T06:13:17.760Z,11.70
2019-03-01T06:14:17.728Z,11.80
2019-03-01T06:15:17.717Z,11.70
2019-03-01T06:16:17.707Z,12.10
2019-03-01T06:17:17.696Z,11.60
2019-03-01T06:18:17.704Z,11.70
2019-03-01T06:19:17.678Z,11.70
2019-03-01T06:20:17.661Z,11.50
2019-03-01T06:21:17.647Z,31.30
2019-03-01T06:22:17.638Z,15.90
2019-03-01T06:23:17.644Z,13.10
2019-03-01T06:24:17.615Z,12.00
2019-03-01T06:25:17.605Z,12.80
2019-03-01T06:26:17.591Z,11.70
2019-03-01T06:27:17.587Z,11.80
2019-03-01T06:28:17.595Z,12.40
2019-03-01T06:29:17.557Z,12.60
2019-03-01T06:30:17.547Z,11.30
2019-03-01T06:31:17.537Z,12.20
2019-03-01T06:32:17.522Z,12.50
2019-03-01T06:33:17.510Z,12.30
2019-03-01T06:34:17.530Z,12.30
2019-03-01T06:35:17.518Z,13.00
2019-03-01T06:36:19.409Z,12.90
2019-03-01T06:37:17.464Z,12.30
2019-03-01T06:38:17.453Z,13.10
2019-03-01T06:39:17.461Z,12.90
2019-03-01T06:40:17.428Z,13.50
2019-03-01T06:41:17.416Z,13.30
2019-03-01T06:42:17.406Z,13.40
2019-03-01T06:43:17.396Z,13.00
2019-03-01T06:44:17.423Z,13.00
2019-03-01T06:45:17.371Z,13.60
2019-03-01T06:46:17.355Z,13.80
2019-03-01T06:47:17.345Z,14.10
2019-03-01T06:48:17.335Z,14.40
2019-03-01T06:49:17.322Z,13.20
2019-03-01T06:50:17.329Z,13.30
2019-03-01T06:51:17.302Z,14.80
2019-03-01T06:52:17.286Z,14.20
2019-03-01T06:53:17.276Z,14.90
2019-03-01T06:54:17.263Z,15.00
2019-03-01T06:55:17.272Z,14.30
2019-03-01T06:56:17.241Z,15.20
2019-03-01T06:57:17.229Z,15.10
2019-03-01T06:58:17.217Z,14.90
2019-03-01T06:59:17.201Z,14.80
2019-03-01T07:00:17.193Z,15.30
2019-03-01T07:01:17.203Z,14.80
2019-03-01T07:02:17.170Z,16.10
2019-03-01T07:03:17.155Z,15.30
2019-03-01T07:04:17.146Z,15.30
2019-03-01T07:05:17.133Z,14.40
2019-03-01T07:06:17.141Z,14.30
2019-03-01T07:07:17.478Z,14.90
2019-03-01T07:08:17.131Z,15.40
2019-03-01T07:09:17.088Z,14.90
2019-03-01T07:10:17.073Z,15.20
2019-03-01T07:11:17.085Z,14.20
2019-03-01T07:12:17.049Z,14.40
2019-03-01T07:13:17.037Z,15.50
2019-03-01T07:14:17.026Z,14.70
2019-03-01T07:15:17.015Z,15.40
2019-03-01T07:16:17.027Z,15.20
2019-03-01T07:17:16.998Z,14.80
2019-03-01T07:18:16.987Z,15.30
2019-03-01T07:19:16.972Z,15.70
2019-03-01T07:20:16.959Z,15.70
2019-03-01T07:21:16.947Z,16.00
2019-03-01T07:22:16.952Z,16.30
2019-03-01T07:23:16.930Z,15.90
2019-03-01T07:24:16.942Z,16.80
2019-03-01T07:25:16.901Z,14.80
2019-03-01T07:26:16.887Z,15.50
2019-03-01T07:27:16.893Z,16.10
2019-03-01T07:28:16.864Z,16.60
2019-03-01T07:29:16.851Z,16.30
2019-03-01T07:30:16.845Z,16.40
2019-03-01T07:31:16.829Z,16.70
2019-03-01T07:32:16.836Z,16.70
2019-03-01T07:33:16.805Z,16.20
2019-03-01T07:34:16.801Z,16.70
2019-03-01T07:35:16.782Z,16.90
2019-03-01T07:36:16.769Z,17.20
2019-03-01T07:37:16.785Z,17.40
2019-03-01T07:38:16.745Z,18.10
2019-03-01T07:39:16.731Z,17.90
2019-03-01T07:40:16.721Z,18.00
2019-03-01T07:41:16.710Z,18.70
2019-03-01T07:42:16.714Z,18.70
2019-03-01T07:43:16.685Z,20.20
2019-03-01T07:44:16.676Z,18.30
2019-03-01T07:45:16.661Z,19.40
2019-03-01T07:46:16.650Z,20.30
2019-03-01T07:47:16.655Z,20.40
2019-03-01T07:48:16.625Z,21.20
2019-03-01T07:49:16.615Z,21.70
2019-03-01T07:50:16.602Z,21.90
2019-03-01T07:51:16.593Z,22.70
2019-03-01T07:52:16.598Z,21.80
2019-03-01T07:53:16.568Z,21.90
2019-03-01T07:54:17.802Z,23.10
2019-03-01T07:55:16.543Z,22.10
2019-03-01T07:56:16.531Z,22.60
2019-03-01T07:57:16.553Z,24.30
2019-03-01T07:58:16.506Z,23.30
2019-03-01T07:59:16.493Z,23.40
2019-03-01T08:00:16.484Z,24.50
2019-03-01T08:01:16.472Z,23.80
2019-03-01T08:02:16.476Z,24.00
2019-03-01T08:03:16.448Z,24.30
2019-03-01T08:04:16.436Z,25.90
2019-03-01T08:05:16.800Z,25.60
2019-03-01T08:06:16.429Z,25.50
2019-03-01T08:07:16.417Z,25.90
2019-03-01T08:08:16.391Z,24.40
2019-03-01T08:09:16.381Z,25.60
2019-03-01T08:10:20.658Z,26.10
2019-03-01T08:11:17.361Z,27.10
2019-03-01T08:12:16.361Z,26.70
2019-03-01T08:13:17.701Z,26.00
2019-03-01T08:14:16.317Z,26.90
2019-03-01T08:15:16.305Z,28.10
2019-03-01T08:16:16.685Z,27.70
2019-03-01T08:17:16.301Z,27.10
2019-03-01T08:18:16.269Z,28.40
2019-03-01T08:19:22.605Z,28.00
2019-03-01T08:20:17.247Z,29.40
2019-03-01T08:21:16.233Z,30.10
2019-03-01T08:22:16.222Z,30.90
2019-03-01T08:23:16.241Z,30.10
2019-03-01T08:24:16.196Z,30.20
2019-03-01T08:25:22.658Z,29.60
2019-03-01T08:26:17.175Z,31.10
2019-03-01T08:27:16.236Z,30.30
2019-03-01T08:28:18.603Z,30.60
2019-03-01T08:29:17.163Z,30.60
2019-03-01T08:30:16.126Z,29.70
2019-03-01T08:31:17.442Z,30.40
2019-03-01T08:32:16.104Z,30.00
2019-03-01T08:33:16.109Z,30.80
2019-03-01T08:34:17.779Z,29.90
2019-03-01T08:35:16.068Z,30.60
2019-03-01T08:36:16.056Z,30.00
2019-03-01T08:37:17.665Z,30.40
2019-03-01T08:38:16.050Z,29.80
2019-03-01T08:39:16.021Z,31.10
2019-03-01T08:40:16.010Z,30.60
2019-03-01T08:41:15.997Z,29.80
2019-03-01T08:42:15.985Z,30.40
2019-03-01T08:43:15.993Z,30.50
2019-03-01T08:44:15.962Z,30.20
2019-03-01T08:45:15.954Z,30.40
2019-03-01T08:46:15.938Z,30.50
2019-03-01T08:47:20.288Z,31.30
2019-03-01T08:48:16.934Z,31.50
2019-03-01T08:49:15.903Z,32.90
2019-03-01T08:50:15.900Z,31.50
2019-03-01T08:51:15.879Z,32.20
2019-03-01T08:52:15.875Z,31.90
2019-03-01T08:53:16.172Z,34.60
2019-03-01T08:54:15.842Z,34.90
2019-03-01T08:55:15.834Z,33.80
2019-03-01T08:56:15.819Z,35.30
2019-03-01T08:57:15.809Z,34.20
2019-03-01T08:58:15.816Z,35.30
2019-03-01T08:59:17.460Z,36.60
2019-03-01T09:00:15.773Z,34.30
2019-03-01T09:01:15.759Z,35.90
2019-03-01T09:02:15.748Z,37.70
2019-03-01T09:03:16.403Z,37.80
2019-03-01T09:04:18.079Z,37.40
2019-03-01T09:05:15.714Z,39.00
2019-03-01T09:06:15.698Z,38.70
2019-03-01T09:07:15.688Z,38.80
2019-03-01T09:08:15.676Z,40.40
2019-03-01T09:09:17.571Z,40.20
2019-03-01T09:10:16.666Z,40.50
2019-03-01T09:11:15.640Z,40.50
2019-03-01T09:12:15.632Z,38.30
2019-03-01T09:13:15.618Z,39.90
2019-03-01T09:14:15.630Z,37.30
2019-03-01T09:15:15.596Z,40.30
2019-03-01T09:16:15.585Z,39.90
2019-03-01T09:17:15.571Z,40.40
2019-03-01T09:18:15.564Z,39.70
2019-03-01T09:19:15.552Z,39.90
2019-03-01T09:20:15.559Z,40.50
2019-03-01T09:21:15.529Z,37.90
2019-03-01T09:22:15.515Z,39.40
2019-03-01T09:23:23.942Z,38.20
2019-03-01T09:24:16.488Z,39.50
2019-03-01T09:25:15.499Z,40.30
2019-03-01T09:26:16.690Z,39.50
2019-03-01T09:27:15.461Z,40.20
2019-03-01T09:28:15.445Z,41.10
2019-03-01T09:29:18.417Z,40.10
2019-03-01T09:30:15.444Z,40.70
2019-03-01T09:31:15.408Z,38.80
2019-03-01T09:32:15.402Z,39.70
2019-03-01T09:33:17.121Z,39.90
2019-03-01T09:34:16.372Z,38.10
2019-03-01T09:35:15.364Z,37.70
2019-03-01T09:36:18.012Z,39.40
2019-03-01T09:37:16.339Z,39.30
2019-03-01T09:38:15.327Z,37.10
2019-03-01T09:39:18.049Z,36.70
2019-03-01T09:40:15.315Z,35.60
2019-03-01T09:41:15.332Z,37.20
2019-03-01T09:42:15.677Z,35.40
2019-03-01T09:43:15.271Z,37.70
2019-03-01T09:44:15.256Z,37.30
2019-03-01T09:45:15.281Z,38.90
2019-03-01T09:46:15.234Z,39.40
2019-03-01T09:47:15.240Z,38.30
2019-03-01T09:48:15.212Z,39.40
2019-03-01T09:49:15.202Z,37.80
2019-03-01T09:50:15.186Z,37.00
2019-03-01T09:51:15.999Z,37.10
2019-03-01T09:52:15.181Z,38.40
2019-03-01T09:53:15.153Z,37.20
2019-03-01T09:54:15.138Z,37.20
2019-03-01T09:55:15.126Z,38.90
2019-03-01T09:56:15.114Z,37.30
2019-03-01T09:57:15.618Z,39.00
2019-03-01T09:58:15.097Z,37.70
2019-03-01T09:59:15.081Z,39.50
2019-03-01T10:00:15.068Z,37.70
2019-03-01T10:01:15.061Z,38.70
2019-03-01T10:02:15.065Z,39.50
2019-03-01T10:03:15.033Z,37.30
2019-03-01T10:04:15.021Z,37.70
2019-03-01T10:05:15.010Z,36.80
2019-03-01T10:06:14.996Z,38.60
2019-03-01T10:07:15.002Z,37.50
2019-03-01T10:08:14.973Z,37.60
2019-03-01T10:09:14.963Z,36.70
2019-03-01T10:10:14.949Z,37.20
2019-03-01T10:11:14.939Z,36.80
2019-03-01T10:12:14.953Z,35.70
2019-03-01T10:13:14.918Z,32.10
2019-03-01T10:14:14.905Z,32.30
2019-03-01T10:15:14.894Z,31.80
2019-03-01T10:16:14.879Z,32.40
2019-03-01T10:17:14.871Z,31.70
2019-03-01T10:18:14.878Z,31.80
2019-03-01T10:19:14.853Z,30.70
2019-03-01T10:20:14.837Z,31.90
2019-03-01T10:21:14.821Z,30.50
2019-03-01T10:22:14.853Z,31.40
2019-03-01T10:23:14.827Z,30.30
2019-03-01T10:24:14.797Z,30.80
2019-03-01T10:25:14.781Z,30.60
2019-03-01T10:26:14.764Z,30.50
2019-03-01T10:27:14.754Z,30.60
2019-03-01T10:28:14.764Z,29.40
2019-03-01T10:29:14.731Z,29.50
2019-03-01T10:30:14.719Z,29.30
2019-03-01T10:31:14.706Z,29.60
2019-03-01T10:32:14.697Z,28.10
2019-03-01T10:33:14.691Z,28.50
2019-03-01T10:34:14.698Z,27.50
2019-03-01T10:35:14.662Z,28.20
2019-03-01T10:36:14.652Z,29.30
2019-03-01T10:37:14.641Z,28.60
2019-03-01T10:38:14.629Z,28.80
2019-03-01T10:39:14.634Z,28.70
2019-03-01T10:40:14.611Z,28.80
2019-03-01T10:41:14.604Z,29.40
2019-03-01T10:42:14.588Z,30.30
2019-03-01T10:43:14.581Z,29.90
2019-03-01T10:44:14.579Z,30.00
2019-03-01T10:45:14.550Z,29.90
2019-03-01T10:46:14.540Z,29.80
2019-03-01T10:47:14.527Z,28.70
2019-03-01T10:48:14.518Z,29.60
2019-03-01T10:49:14.524Z,28.90
2019-03-01T10:50:14.494Z,30.50
2019-03-01T10:51:14.484Z,30.90
2019-03-01T10:52:14.473Z,29.20
2019-03-01T10:53:14.513Z,29.90
2019-03-01T10:54:14.450Z,30.20
2019-03-01T10:55:14.456Z,28.80
2019-03-01T10:56:14.430Z,29.30
2019-03-01T10:57:14.413Z,29.50
2019-03-01T10:58:14.403Z,28.80
2019-03-01T10:59:14.395Z,29.20
2019-03-01T11:00:14.399Z,28.60
2019-03-01T11:01:14.372Z,28.00
2019-03-01T11:02:14.361Z,29.00
2019-03-01T11:03:14.349Z,27.70
2019-03-01T11:04:14.336Z,28.70
2019-03-01T11:05:14.343Z,28.10
2019-03-01T11:06:14.324Z,28.60
2019-03-01T11:07:14.303Z,28.70
2019-03-01T11:08:14.293Z,29.00
2019-03-01T11:09:14.279Z,28.90
2019-03-01T11:10:14.312Z,28.30
2019-03-01T11:11:14.262Z,29.00
2019-03-01T11:12:14.244Z,28.40
2019-03-01T11:13:14.233Z,28.50
2019-03-01T11:14:14.226Z,28.10
2019-03-01T11:15:14.217Z,26.30
2019-03-01T11:16:14.216Z,28.30
2019-03-01T11:17:14.188Z,27.30
2019-03-01T11:18:14.176Z,28.10
2019-03-01T11:19:14.215Z,27.20
2019-03-01T11:20:14.154Z,25.30
2019-03-01T11:21:14.159Z,26.20
2019-03-01T11:22:14.133Z,25.00
2019-03-01T11:23:14.120Z,24.50
2019-03-01T11:24:14.106Z,22.90
2019-03-01T11:25:14.096Z,22.90
2019-03-01T11:26:14.100Z,20.90
2019-03-01T11:27:14.070Z,21.00
2019-03-01T11:28:14.058Z,20.40
2019-03-01T11:29:14.048Z,19.50
2019-03-01T11:30:14.041Z,20.20
2019-03-01T11:31:14.045Z,20.50
2019-03-01T11:32:14.017Z,19.30
2019-03-01T11:33:14.001Z,20.40
2019-03-01T11:34:13.988Z,19.00
2019-03-01T11:35:13.978Z,20.20
2019-03-01T11:36:13.968Z,19.70
2019-03-01T11:37:13.977Z,19.40
2019-03-01T11:38:13.942Z,21.00
2019-03-01T11:39:13.934Z,19.80
2019-03-01T11:40:13.931Z,21.60
2019-03-01T11:41:13.912Z,20.70
2019-03-01T11:42:13.954Z,20.00
2019-03-01T11:43:13.883Z,20.50
2019-03-01T11:44:13.873Z,20.20
2019-03-01T11:45:13.865Z,19.70
2019-03-01T11:46:13.851Z,19.40
2019-03-01T11:47:13.867Z,20.30
2019-03-01T11:48:13.825Z,19.30
2019-03-01T11:49:13.811Z,20.60
2019-03-01T11:50:13.809Z,20.70
2019-03-01T11:51:13.790Z,20.90
2019-03-01T11:52:13.778Z,20.40
2019-03-01T11:53:13.785Z,21.30
2019-03-01T11:54:13.754Z,21.10
2019-03-01T11:55:13.751Z,20.80
2019-03-01T11:56:13.740Z,21.10
2019-03-01T11:57:13.745Z,20.10
2019-03-01T11:58:13.743Z,20.40
2019-03-01T11:59:13.700Z,20.10
2019-03-01T12:00:13.686Z,20.40
2019-03-01T12:01:17.231Z,19.20
2019-03-01T12:02:13.674Z,19.90
2019-03-01T12:03:15.334Z,19.60
2019-03-01T12:04:13.666Z,20.20
2019-03-01T12:05:13.631Z,20.60
2019-03-01T12:06:13.621Z,19.70
2019-03-01T12:07:13.606Z,21.20
2019-03-01T12:08:13.599Z,20.70
2019-03-01T12:09:13.630Z,20.50
2019-03-01T12:10:13.573Z,20.20
2019-03-01T12:11:13.570Z,20.30
2019-03-01T12:12:13.549Z,20.00
2019-03-01T12:13:13.544Z,20.20
2019-03-01T12:14:13.575Z,19.70
2019-03-01T12:15:13.519Z,20.60
2019-03-01T12:16:13.510Z,20.00
2019-03-01T12:17:13.502Z,20.20
2019-03-01T12:18:13.485Z,20.80
2019-03-01T12:19:13.471Z,20.00
2019-03-01T12:20:13.481Z,20.30
2019-03-01T12:21:13.449Z,20.10
2019-03-01T12:22:17.068Z,20.90
2019-03-01T12:23:13.427Z,19.70
2019-03-01T12:24:13.418Z,20.30
2019-03-01T12:25:13.426Z,19.50
2019-03-01T12:26:13.391Z,19.30
2019-03-01T12:27:13.382Z,19.10
2019-03-01T12:28:13.375Z,19.80
2019-03-01T12:29:13.374Z,18.80
2019-03-01T12:30:13.368Z,18.90
2019-03-01T12:31:13.334Z,20.00
2019-03-01T12:32:13.325Z,20.20
2019-03-01T12:33:13.310Z,20.20
2019-03-01T12:34:13.307Z,20.80
2019-03-01T12:35:13.319Z,19.50
2019-03-01T12:36:13.279Z,20.90
2019-03-01T12:37:13.267Z,19.30
2019-03-01T12:38:13.254Z,20.20
2019-03-01T12:39:13.244Z,19.40
2019-03-01T12:40:13.247Z,18.40
2019-03-01T12:41:13.224Z,19.00
2019-03-01T12:42:13.207Z,18.70
2019-03-01T12:43:13.195Z,18.10
2019-03-01T12:44:13.186Z,17.90
2019-03-01T12:45:13.194Z,18.60
2019-03-01T12:46:13.162Z,16.60
2019-03-01T12:47:13.150Z,16.10
2019-03-01T12:48:13.140Z,15.50
2019-03-01T12:49:13.129Z,14.10
2019-03-01T12:50:13.117Z,14.60
2019-03-01T12:51:13.125Z,13.40
2019-03-01T12:52:13.092Z,12.80
2019-03-01T12:53:13.084Z,12.00
2019-03-01T12:54:13.070Z,11.60
2019-03-01T12:55:13.080Z,11.70
2019-03-01T12:56:13.048Z,11.00
2019-03-01T12:57:13.039Z,10.50
2019-03-01T12:58:19.351Z,9.90
2019-03-01T12:59:14.016Z,9.90
2019-03-01T13:00:13.042Z,10.40
2019-03-01T13:01:12.997Z,9.60
2019-03-01T13:02:12.981Z,9.60